sensor_id;sensor_type;location;lat;lon;timestamp;pressure;altitude;pressure_sealevel;temperature;humidity
59531;BME280;45349;48.692;8.186;2022-10-28T00:01:25;99390.06;;;13.02;100.00
59531;BME280;45349;48.692;8.186;2022-10-28T00:03:53;99377.25;;;12.98;100.00
59531;BME280;45349;48.692;8.186;2022-10-28T00:06:23;99380.84;;;12.97;100.00
59531;BME280;45349;48.692;8.186;2022-10-28T00:08:50;99375.59;;;12.97;100.00
59531;BME280;45349;48.692;8.186;2022-10-28T00:11:19;99369.81;;;12.94;100.00
59531;BME280;45349;48.692;8.186;2022-10-28T00:13:45;99369.81;;;12.94;100.00
59531;BME280;45349;48.692;8.186;2022-10-28T00:16:14;99373.13;;;12.96;100.00
59531;BME280;45349;48.692;8.186;2022-10-28T00:18:41;99368.72;;;12.96;100.00
59531;BME280;45349;48.692;8.186;2022-10-28T00:21:10;99361.94;;;12.94;100.00
59531;BME280;45349;48.692;8.186;2022-10-28T00:23:38;99361.28;;;12.92;100.00
59531;BME280;45349;48.692;8.186;2022-10-28T00:26:06;99366.50;;;12.92;100.00
59531;BME280;45349;48.692;8.186;2022-10-28T00:28:33;99370.28;;;12.89;100.00
59531;BME280;45349;48.692;8.186;2022-10-28T00:31:04;99370.34;;;12.97;100.00
59531;BME280;45349;48.692;8.186;2022-10-28T00:33:32;99376.41;;;12.98;100.00
59531;BME280;45349;48.692;8.186;2022-10-28T00:36:10;99371.47;;;12.95;100.00
59531;BME280;45349;48.692;8.186;2022-10-28T00:38:38;99363.59;;;12.95;100.00
59531;BME280;45349;48.692;8.186;2022-10-28T00:41:05;99364.72;;;12.92;100.00
59531;BME280;45349;48.692;8.186;2022-10-28T00:43:33;99362.78;;;12.94;100.00
59531;BME280;45349;48.692;8.186;2022-10-28T00:46:00;99365.16;;;12.88;100.00
59531;BME280;45349;48.692;8.186;2022-10-28T00:48:27;99371.53;;;12.85;100.00
59531;BME280;45349;48.692;8.186;2022-10-28T00:50:54;99369.88;;;12.84;100.00
59531;BME280;45349;48.692;8.186;2022-10-28T00:53:23;99361.63;;;12.79;100.00
59531;BME280;45349;48.692;8.186;2022-10-28T00:55:52;99367.00;;;12.77;100.00
59531;BME280;45349;48.692;8.186;2022-10-28T00:58:21;99370.47;;;12.78;100.00
59531;BME280;45349;48.692;8.186;2022-10-28T01:00:48;99373.22;;;12.76;100.00
59531;BME280;45349;48.692;8.186;2022-10-28T01:03:15;99370.19;;;12.81;100.00
59531;BME280;45349;48.692;8.186;2022-10-28T01:05:45;99365.91;;;12.80;100.00
59531;BME280;45349;48.692;8.186;2022-10-28T01:08:12;99361.09;;;12.75;100.00
59531;BME280;45349;48.692;8.186;2022-10-28T01:11:04;99353.78;;;12.79;100.00
59531;BME280;45349;48.692;8.186;2022-10-28T01:13:39;99354.28;;;12.82;100.00
59531;BME280;45349;48.692;8.186;2022-10-28T01:16:25;99358.34;;;12.77;100.00
59531;BME280;45349;48.692;8.186;2022-10-28T01:19:04;99352.13;;;12.78;100.00
59531;BME280;45349;48.692;8.186;2022-10-28T01:22:03;99351.38;;;12.85;100.00
59531;BME280;45349;48.692;8.186;2022-10-28T01:24:47;99346.53;;;12.91;100.00
59531;BME280;45349;48.692;8.186;2022-10-28T01:27:38;99359.03;;;12.97;100.00
59531;BME280;45349;48.692;8.186;2022-10-28T01:30:12;99360.09;;;13.04;100.00
59531;BME280;45349;48.692;8.186;2022-10-28T01:32:51;99364.44;;;13.13;100.00
59531;BME280;45349;48.692;8.186;2022-10-28T01:35:24;99365.19;;;13.24;100.00
59531;BME280;45349;48.692;8.186;2022-10-28T01:38:05;99364.06;;;13.26;100.00
59531;BME280;45349;48.692;8.186;2022-10-28T01:40:40;99359.34;;;13.30;100.00
59531;BME280;45349;48.692;8.186;2022-10-28T01:43:12;99362.06;;;13.38;100.00
59531;BME280;45349;48.692;8.186;2022-10-28T01:45:48;99364.41;;;13.41;100.00
59531;BME280;45349;48.692;8.186;2022-10-28T01:48:21;99365.06;;;13.43;100.00
59531;BME280;45349;48.692;8.186;2022-10-28T01:50:52;99369.19;;;13.46;100.00
59531;BME280;45349;48.692;8.186;2022-10-28T01:53:26;99367.03;;;13.41;100.00
59531;BME280;45349;48.692;8.186;2022-10-28T01:55:57;99366.25;;;13.31;100.00
59531;BME280;45349;48.692;8.186;2022-10-28T01:58:28;99361.31;;;13.28;100.00
59531;BME280;45349;48.692;8.186;2022-10-28T02:00:57;99360.72;;;13.34;100.00
59531;BME280;45349;48.692;8.186;2022-10-28T02:03:26;99358.88;;;13.35;100.00
59531;BME280;45349;48.692;8.186;2022-10-28T02:05:54;99363.25;;;13.44;100.00
59531;BME280;45349;48.692;8.186;2022-10-28T02:08:47;99360.88;;;13.51;100.00
59531;BME280;45349;48.692;8.186;2022-10-28T02:11:58;99355.31;;;13.54;100.00
59531;BME280;45349;48.692;8.186;2022-10-28T02:14:38;99367.00;;;13.60;100.00
59531;BME280;45349;48.692;8.186;2022-10-28T02:17:12;99368.03;;;13.67;100.00
59531;BME280;45349;48.692;8.186;2022-10-28T02:19:47;99374.50;;;13.72;100.00
59531;BME280;45349;48.692;8.186;2022-10-28T02:22:19;99356.13;;;13.72;100.00
59531;BME280;45349;48.692;8.186;2022-10-28T02:24:54;99359.41;;;13.75;100.00
59531;BME280;45349;48.692;8.186;2022-10-28T02:27:31;99355.81;;;13.76;100.00
59531;BME280;45349;48.692;8.186;2022-10-28T02:30:02;99348.44;;;13.79;100.00
59531;BME280;45349;48.692;8.186;2022-10-28T02:32:33;99340.41;;;13.81;100.00
59531;BME280;45349;48.692;8.186;2022-10-28T02:35:06;99333.06;;;13.84;100.00
59531;BME280;45349;48.692;8.186;2022-10-28T02:37:37;99341.75;;;13.85;100.00
59531;BME280;45349;48.692;8.186;2022-10-28T02:40:12;99335.22;;;13.89;100.00
59531;BME280;45349;48.692;8.186;2022-10-28T02:42:43;99334.53;;;13.87;100.00
59531;BME280;45349;48.692;8.186;2022-10-28T02:45:14;99326.53;;;13.88;100.00
59531;BME280;45349;48.692;8.186;2022-10-28T02:47:45;99323.56;;;13.83;100.00
59531;BME280;45349;48.692;8.186;2022-10-28T02:50:17;99320.75;;;13.85;100.00
59531;BME280;45349;48.692;8.186;2022-10-28T02:52:49;99322.41;;;13.86;100.00
59531;BME280;45349;48.692;8.186;2022-10-28T02:55:18;99318.13;;;13.85;100.00
59531;BME280;45349;48.692;8.186;2022-10-28T02:57:47;99302.91;;;13.88;100.00
59531;BME280;45349;48.692;8.186;2022-10-28T03:00:16;99300.75;;;13.84;100.00
59531;BME280;45349;48.692;8.186;2022-10-28T03:02:43;99308.78;;;13.82;100.00
59531;BME280;45349;48.692;8.186;2022-10-28T03:05:10;99292.19;;;13.82;100.00
59531;BME280;45349;48.692;8.186;2022-10-28T03:07:38;99288.97;;;13.88;100.00
59531;BME280;45349;48.692;8.186;2022-10-28T03:10:05;99287.84;;;13.91;100.00
59531;BME280;45349;48.692;8.186;2022-10-28T03:12:32;99282.94;;;13.96;100.00
59531;BME280;45349;48.692;8.186;2022-10-28T03:14:58;99277.84;;;13.94;100.00
59531;BME280;45349;48.692;8.186;2022-10-28T03:17:26;99286.56;;;13.95;100.00
59531;BME280;45349;48.692;8.186;2022-10-28T03:19:52;99299.31;;;13.90;100.00
59531;BME280;45349;48.692;8.186;2022-10-28T03:22:19;99314.09;;;13.91;100.00
59531;BME280;45349;48.692;8.186;2022-10-28T03:24:47;99319.34;;;13.91;100.00
59531;BME280;45349;48.692;8.186;2022-10-28T03:27:13;99310.34;;;14.01;100.00
59531;BME280;45349;48.692;8.186;2022-10-28T03:29:40;99306.66;;;14.12;100.00
59531;BME280;45349;48.692;8.186;2022-10-28T03:32:06;99308.03;;;14.33;99.71
59531;BME280;45349;48.692;8.186;2022-10-28T03:34:33;99304.78;;;14.39;98.89
59531;BME280;45349;48.692;8.186;2022-10-28T03:36:59;99299.06;;;14.44;98.29
59531;BME280;45349;48.692;8.186;2022-10-28T03:39:26;99293.97;;;14.51;96.68
59531;BME280;45349;48.692;8.186;2022-10-28T03:41:54;99295.16;;;14.56;96.60
59531;BME280;45349;48.692;8.186;2022-10-28T03:44:20;99305.81;;;14.55;95.93
59531;BME280;45349;48.692;8.186;2022-10-28T03:46:47;99316.81;;;14.50;96.19
59531;BME280;45349;48.692;8.186;2022-10-28T03:49:13;99310.41;;;14.53;97.20
59531;BME280;45349;48.692;8.186;2022-10-28T03:51:40;99290.34;;;14.43;98.16
59531;BME280;45349;48.692;8.186;2022-10-28T03:54:06;99267.19;;;14.39;98.31
59531;BME280;45349;48.692;8.186;2022-10-28T03:56:33;99254.38;;;14.36;99.00
59531;BME280;45349;48.692;8.186;2022-10-28T03:59:01;99247.13;;;14.29;98.91
59531;BME280;45349;48.692;8.186;2022-10-28T04:01:27;99225.78;;;14.24;99.54
59531;BME280;45349;48.692;8.186;2022-10-28T04:03:54;99224.47;;;14.28;95.99
59531;BME280;45349;48.692;8.186;2022-10-28T04:06:20;99223.00;;;14.26;97.58
59531;BME280;45349;48.692;8.186;2022-10-28T04:08:47;99225.97;;;14.23;97.97
59531;BME280;45349;48.692;8.186;2022-10-28T04:11:13;99225.13;;;14.22;99.03
59531;BME280;45349;48.692;8.186;2022-10-28T04:13:40;99226.28;;;14.20;98.89
59531;BME280;45349;48.692;8.186;2022-10-28T04:16:10;99231.66;;;14.18;97.97
59531;BME280;45349;48.692;8.186;2022-10-28T04:18:37;99247.41;;;14.10;98.81
59531;BME280;45349;48.692;8.186;2022-10-28T04:21:03;99254.25;;;14.02;99.20
59531;BME280;45349;48.692;8.186;2022-10-28T04:23:30;99246.34;;;13.94;99.14
59531;BME280;45349;48.692;8.186;2022-10-28T04:25:56;99243.06;;;13.92;98.01
59531;BME280;45349;48.692;8.186;2022-10-28T04:28:23;99247.03;;;14.05;95.89
59531;BME280;45349;48.692;8.186;2022-10-28T04:30:49;99255.78;;;14.13;95.42
59531;BME280;45349;48.692;8.186;2022-10-28T04:33:19;99265.13;;;14.16;95.46
59531;BME280;45349;48.692;8.186;2022-10-28T04:35:46;99269.41;;;14.17;96.83
59531;BME280;45349;48.692;8.186;2022-10-28T04:38:12;99275.81;;;14.14;97.61
59531;BME280;45349;48.692;8.186;2022-10-28T04:40:39;99276.94;;;14.12;97.85
59531;BME280;45349;48.692;8.186;2022-10-28T04:43:06;99274.31;;;14.12;97.98
59531;BME280;45349;48.692;8.186;2022-10-28T04:45:33;99287.44;;;14.12;98.52
59531;BME280;45349;48.692;8.186;2022-10-28T04:48:00;99300.75;;;14.10;98.78
59531;BME280;45349;48.692;8.186;2022-10-28T04:50:28;99291.34;;;14.08;99.25
59531;BME280;45349;48.692;8.186;2022-10-28T04:52:54;99288.56;;;14.01;99.63
59531;BME280;45349;48.692;8.186;2022-10-28T04:55:21;99286.38;;;13.96;100.00
59531;BME280;45349;48.692;8.186;2022-10-28T04:57:54;99269.59;;;13.89;100.00
59531;BME280;45349;48.692;8.186;2022-10-28T05:00:21;99260.41;;;13.85;100.00
59531;BME280;45349;48.692;8.186;2022-10-28T05:02:48;99245.28;;;13.79;100.00
59531;BME280;45349;48.692;8.186;2022-10-28T05:05:14;99238.88;;;13.73;100.00
59531;BME280;45349;48.692;8.186;2022-10-28T05:07:43;99236.72;;;13.68;100.00
59531;BME280;45349;48.692;8.186;2022-10-28T05:10:09;99231.63;;;13.67;100.00
59531;BME280;45349;48.692;8.186;2022-10-28T05:12:40;99219.97;;;13.61;100.00
59531;BME280;45349;48.692;8.186;2022-10-28T05:15:08;99224.72;;;13.66;100.00
59531;BME280;45349;48.692;8.186;2022-10-28T05:17:37;99231.47;;;13.68;100.00
59531;BME280;45349;48.692;8.186;2022-10-28T05:20:04;99238.81;;;13.65;100.00
59531;BME280;45349;48.692;8.186;2022-10-28T05:22:31;99227.53;;;13.64;100.00
59531;BME280;45349;48.692;8.186;2022-10-28T05:24:59;99232.09;;;13.62;100.00
59531;BME280;45349;48.692;8.186;2022-10-28T05:27:25;99308.22;;;13.70;100.00
59531;BME280;45349;48.692;8.186;2022-10-28T05:29:52;99309.56;;;13.75;100.00
59531;BME280;45349;48.692;8.186;2022-10-28T05:32:19;99299.03;;;13.66;100.00
59531;BME280;45349;48.692;8.186;2022-10-28T05:34:48;99298.97;;;13.58;100.00
59531;BME280;45349;48.692;8.186;2022-10-28T05:37:14;99316.44;;;13.49;100.00
59531;BME280;45349;48.692;8.186;2022-10-28T05:39:41;99305.75;;;13.42;100.00
59531;BME280;45349;48.692;8.186;2022-10-28T05:42:08;99308.25;;;13.34;100.00
59531;BME280;45349;48.692;8.186;2022-10-28T05:44:35;99300.31;;;13.26;100.00
59531;BME280;45349;48.692;8.186;2022-10-28T05:47:02;99305.19;;;13.21;100.00
59531;BME280;45349;48.692;8.186;2022-10-28T05:49:28;99285.00;;;13.13;100.00
59531;BME280;45349;48.692;8.186;2022-10-28T05:51:55;99275.78;;;13.09;100.00
59531;BME280;45349;48.692;8.186;2022-10-28T05:54:21;99271.28;;;13.01;100.00
59531;BME280;45349;48.692;8.186;2022-10-28T05:56:48;99273.41;;;12.97;100.00
59531;BME280;45349;48.692;8.186;2022-10-28T05:59:16;99268.97;;;12.98;100.00
59531;BME280;45349;48.692;8.186;2022-10-28T06:01:43;99269.72;;;13.08;100.00
59531;BME280;45349;48.692;8.186;2022-10-28T06:04:09;99267.25;;;13.07;100.00
59531;BME280;45349;48.692;8.186;2022-10-28T06:06:36;99284.63;;;13.08;100.00
59531;BME280;45349;48.692;8.186;2022-10-28T06:09:02;99283.06;;;13.15;100.00
59531;BME280;45349;48.692;8.186;2022-10-28T06:11:29;99278.91;;;13.12;100.00
59531;BME280;45349;48.692;8.186;2022-10-28T06:13:56;99274.13;;;13.26;100.00
59531;BME280;45349;48.692;8.186;2022-10-28T06:16:23;99272.31;;;13.26;100.00
59531;BME280;45349;48.692;8.186;2022-10-28T06:18:50;99275.38;;;13.22;100.00
59531;BME280;45349;48.692;8.186;2022-10-28T06:21:16;99271.97;;;13.21;100.00
59531;BME280;45349;48.692;8.186;2022-10-28T06:23:45;99268.66;;;13.19;100.00
59531;BME280;45349;48.692;8.186;2022-10-28T06:26:12;99267.84;;;13.19;100.00
59531;BME280;45349;48.692;8.186;2022-10-28T06:28:39;99270.31;;;13.20;100.00
59531;BME280;45349;48.692;8.186;2022-10-28T06:31:07;99279.53;;;13.24;100.00
59531;BME280;45349;48.692;8.186;2022-10-28T06:33:35;99271.66;;;13.24;100.00
59531;BME280;45349;48.692;8.186;2022-10-28T06:36:02;99268.69;;;13.27;100.00
59531;BME280;45349;48.692;8.186;2022-10-28T06:38:29;99268.41;;;13.31;100.00
59531;BME280;45349;48.692;8.186;2022-10-28T06:40:56;99270.28;;;13.38;100.00
59531;BME280;45349;48.692;8.186;2022-10-28T06:43:23;99279.78;;;13.39;100.00
59531;BME280;45349;48.692;8.186;2022-10-28T06:45:50;99277.88;;;13.41;100.00
59531;BME280;45349;48.692;8.186;2022-10-28T06:48:19;99282.63;;;13.46;100.00
59531;BME280;45349;48.692;8.186;2022-10-28T06:50:47;99281.34;;;13.50;100.00
59531;BME280;45349;48.692;8.186;2022-10-28T06:53:14;99290.25;;;13.57;100.00
59531;BME280;45349;48.692;8.186;2022-10-28T06:55:40;99293.91;;;13.65;100.00
59531;BME280;45349;48.692;8.186;2022-10-28T06:58:08;99304.63;;;13.71;100.00
59531;BME280;45349;48.692;8.186;2022-10-28T07:00:34;99308.25;;;13.79;100.00
59531;BME280;45349;48.692;8.186;2022-10-28T07:03:01;99313.38;;;13.80;100.00
59531;BME280;45349;48.692;8.186;2022-10-28T07:05:28;99312.44;;;13.90;100.00
59531;BME280;45349;48.692;8.186;2022-10-28T07:07:56;99310.97;;;13.95;100.00
59531;BME280;45349;48.692;8.186;2022-10-28T07:10:22;99310.84;;;13.97;100.00
59531;BME280;45349;48.692;8.186;2022-10-28T07:12:51;99320.72;;;14.03;100.00
59531;BME280;45349;48.692;8.186;2022-10-28T07:15:17;99312.53;;;14.06;100.00
59531;BME280;45349;48.692;8.186;2022-10-28T07:17:50;99309.41;;;14.11;100.00
59531;BME280;45349;48.692;8.186;2022-10-28T07:20:17;99303.84;;;14.14;100.00
59531;BME280;45349;48.692;8.186;2022-10-28T07:22:43;99305.34;;;14.16;100.00
59531;BME280;45349;48.692;8.186;2022-10-28T07:25:11;99305.72;;;14.22;100.00
59531;BME280;45349;48.692;8.186;2022-10-28T07:27:38;99299.00;;;14.27;100.00
59531;BME280;45349;48.692;8.186;2022-10-28T07:30:06;99304.09;;;14.37;100.00
59531;BME280;45349;48.692;8.186;2022-10-28T07:32:32;99307.28;;;14.49;100.00
59531;BME280;45349;48.692;8.186;2022-10-28T07:34:59;99307.63;;;14.54;100.00
59531;BME280;45349;48.692;8.186;2022-10-28T07:37:27;99316.19;;;14.65;100.00
59531;BME280;45349;48.692;8.186;2022-10-28T07:39:54;99310.00;;;14.74;100.00
59531;BME280;45349;48.692;8.186;2022-10-28T07:42:22;99307.06;;;14.85;100.00
59531;BME280;45349;48.692;8.186;2022-10-28T07:44:49;99308.56;;;14.96;100.00
59531;BME280;45349;48.692;8.186;2022-10-28T07:47:15;99313.50;;;15.08;100.00
59531;BME280;45349;48.692;8.186;2022-10-28T07:49:43;99318.44;;;15.19;100.00
59531;BME280;45349;48.692;8.186;2022-10-28T07:52:10;99325.84;;;15.32;99.69
59531;BME280;45349;48.692;8.186;2022-10-28T07:54:36;99325.50;;;15.43;99.98
59531;BME280;45349;48.692;8.186;2022-10-28T07:57:03;99333.41;;;15.52;96.68
59531;BME280;45349;48.692;8.186;2022-10-28T07:59:31;99345.38;;;15.62;97.18
59531;BME280;45349;48.692;8.186;2022-10-28T08:01:57;99348.19;;;15.69;97.84
59531;BME280;45349;48.692;8.186;2022-10-28T08:04:24;99347.34;;;15.77;97.71
59531;BME280;45349;48.692;8.186;2022-10-28T08:06:53;99356.06;;;15.86;97.73
59531;BME280;45349;48.692;8.186;2022-10-28T08:09:19;99363.47;;;15.99;95.09
59531;BME280;45349;48.692;8.186;2022-10-28T08:11:46;99377.75;;;16.13;89.65
59531;BME280;45349;48.692;8.186;2022-10-28T08:14:13;99366.38;;;16.29;86.32
59531;BME280;45349;48.692;8.186;2022-10-28T08:16:40;99355.47;;;16.40;85.92
59531;BME280;45349;48.692;8.186;2022-10-28T08:19:07;99347.63;;;16.55;88.47
59531;BME280;45349;48.692;8.186;2022-10-28T08:21:33;99353.34;;;16.67;87.06
59531;BME280;45349;48.692;8.186;2022-10-28T08:24:00;99352.44;;;16.83;85.52
59531;BME280;45349;48.692;8.186;2022-10-28T08:26:27;99350.91;;;16.89;84.70
59531;BME280;45349;48.692;8.186;2022-10-28T08:28:53;99341.00;;;16.91;84.30
59531;BME280;45349;48.692;8.186;2022-10-28T08:31:20;99337.88;;;16.95;83.55
59531;BME280;45349;48.692;8.186;2022-10-28T08:33:47;99329.47;;;16.92;82.32
59531;BME280;45349;48.692;8.186;2022-10-28T08:36:15;99324.53;;;16.97;81.07
59531;BME280;45349;48.692;8.186;2022-10-28T08:38:42;99330.78;;;17.19;80.04
59531;BME280;45349;48.692;8.186;2022-10-28T08:41:18;99327.22;;;17.35;83.89
59531;BME280;45349;48.692;8.186;2022-10-28T08:44:02;99317.34;;;17.52;82.03
59531;BME280;45349;48.692;8.186;2022-10-28T08:46:45;99323.34;;;17.61;83.00
59531;BME280;45349;48.692;8.186;2022-10-28T08:49:18;99318.91;;;17.77;82.81
59531;BME280;45349;48.692;8.186;2022-10-28T08:51:50;99323.75;;;17.88;82.63
59531;BME280;45349;48.692;8.186;2022-10-28T08:54:21;99315.41;;;17.99;81.20
59531;BME280;45349;48.692;8.186;2022-10-28T08:56:50;99311.66;;;18.09;81.08
59531;BME280;45349;48.692;8.186;2022-10-28T08:59:24;99308.09;;;18.17;83.09
59531;BME280;45349;48.692;8.186;2022-10-28T09:01:56;99317.31;;;18.21;81.34
59531;BME280;45349;48.692;8.186;2022-10-28T09:04:32;99322.75;;;18.34;83.29
59531;BME280;45349;48.692;8.186;2022-10-28T09:07:01;99313.28;;;18.40;81.67
59531;BME280;45349;48.692;8.186;2022-10-28T09:09:32;99324.19;;;18.52;81.59
59531;BME280;45349;48.692;8.186;2022-10-28T09:12:07;99331.69;;;18.48;73.90
59531;BME280;45349;48.692;8.186;2022-10-28T09:14:46;99339.63;;;18.70;74.04
59531;BME280;45349;48.692;8.186;2022-10-28T09:17:17;99343.81;;;18.79;75.28
59531;BME280;45349;48.692;8.186;2022-10-28T09:19:48;99336.94;;;18.63;69.14
59531;BME280;45349;48.692;8.186;2022-10-28T09:22:30;99344.19;;;18.76;74.06
59531;BME280;45349;48.692;8.186;2022-10-28T09:25:00;99334.34;;;18.70;72.24
59531;BME280;45349;48.692;8.186;2022-10-28T09:27:41;99342.84;;;18.65;73.21
59531;BME280;45349;48.692;8.186;2022-10-28T09:30:27;99347.41;;;18.71;71.40
59531;BME280;45349;48.692;8.186;2022-10-28T09:33:08;99349.56;;;18.83;70.22
59531;BME280;45349;48.692;8.186;2022-10-28T09:35:42;99353.44;;;19.02;72.00
59531;BME280;45349;48.692;8.186;2022-10-28T09:38:19;99359.00;;;19.07;72.38
59531;BME280;45349;48.692;8.186;2022-10-28T09:40:51;99351.69;;;19.09;71.50
59531;BME280;45349;48.692;8.186;2022-10-28T09:43:23;99355.28;;;19.01;71.62
59531;BME280;45349;48.692;8.186;2022-10-28T09:45:52;99359.78;;;18.86;71.35
59531;BME280;45349;48.692;8.186;2022-10-28T09:48:23;99358.09;;;18.63;73.06
59531;BME280;45349;48.692;8.186;2022-10-28T09:50:54;99345.34;;;18.52;73.76
59531;BME280;45349;48.692;8.186;2022-10-28T09:53:30;99350.19;;;18.48;73.65
59531;BME280;45349;48.692;8.186;2022-10-28T09:56:01;99339.47;;;18.56;76.33
59531;BME280;45349;48.692;8.186;2022-10-28T09:58:27;99349.31;;;18.63;76.94
59531;BME280;45349;48.692;8.186;2022-10-28T10:00:54;99335.72;;;18.66;75.57
59531;BME280;45349;48.692;8.186;2022-10-28T10:03:22;99339.63;;;18.85;75.60
59531;BME280;45349;48.692;8.186;2022-10-28T10:05:51;99328.47;;;19.05;73.83
59531;BME280;45349;48.692;8.186;2022-10-28T10:08:20;99325.09;;;19.17;71.61
59531;BME280;45349;48.692;8.186;2022-10-28T10:10:49;99326.28;;;19.15;74.05
59531;BME280;45349;48.692;8.186;2022-10-28T10:13:21;99321.25;;;19.20;73.86
59531;BME280;45349;48.692;8.186;2022-10-28T10:15:51;99331.44;;;19.23;74.45
59531;BME280;45349;48.692;8.186;2022-10-28T10:18:22;99340.13;;;19.39;74.18
59531;BME280;45349;48.692;8.186;2022-10-28T10:20:51;99339.59;;;19.43;74.95
59531;BME280;45349;48.692;8.186;2022-10-28T10:23:28;99343.53;;;19.54;75.99
59531;BME280;45349;48.692;8.186;2022-10-28T10:26:00;99340.78;;;19.69;77.08
59531;BME280;45349;48.692;8.186;2022-10-28T10:28:29;99334.91;;;19.74;76.25
59531;BME280;45349;48.692;8.186;2022-10-28T10:31:00;99343.88;;;19.73;72.09
59531;BME280;45349;48.692;8.186;2022-10-28T10:33:30;99347.31;;;19.73;74.08
59531;BME280;45349;48.692;8.186;2022-10-28T10:36:13;99347.09;;;19.68;71.23
59531;BME280;45349;48.692;8.186;2022-10-28T10:38:48;99339.88;;;19.33;74.47
59531;BME280;45349;48.692;8.186;2022-10-28T10:41:31;99349.09;;;19.16;73.01
59531;BME280;45349;48.692;8.186;2022-10-28T10:43:58;99338.59;;;19.01;74.40
59531;BME280;45349;48.692;8.186;2022-10-28T10:46:25;99335.13;;;19.00;73.39
59531;BME280;45349;48.692;8.186;2022-10-28T10:49:06;99340.41;;;18.85;75.26
59531;BME280;45349;48.692;8.186;2022-10-28T10:51:36;99341.69;;;18.89;73.81
59531;BME280;45349;48.692;8.186;2022-10-28T10:54:12;99326.94;;;18.80;73.76
59531;BME280;45349;48.692;8.186;2022-10-28T10:56:42;99323.53;;;18.86;74.58
59531;BME280;45349;48.692;8.186;2022-10-28T10:59:16;99313.34;;;18.83;76.56
59531;BME280;45349;48.692;8.186;2022-10-28T11:01:44;99320.28;;;18.84;76.95
59531;BME280;45349;48.692;8.186;2022-10-28T11:04:16;99313.16;;;18.85;75.93
59531;BME280;45349;48.692;8.186;2022-10-28T11:06:48;99311.22;;;18.94;75.76
59531;BME280;45349;48.692;8.186;2022-10-28T11:09:21;99302.00;;;19.05;77.15
59531;BME280;45349;48.692;8.186;2022-10-28T11:11:51;99308.88;;;19.27;76.54
59531;BME280;45349;48.692;8.186;2022-10-28T11:14:23;99302.66;;;19.35;76.28
59531;BME280;45349;48.692;8.186;2022-10-28T11:16:51;99303.66;;;19.62;76.36
59531;BME280;45349;48.692;8.186;2022-10-28T11:19:20;99298.25;;;20.06;74.09
59531;BME280;45349;48.692;8.186;2022-10-28T11:21:54;99310.34;;;20.22;73.01
59531;BME280;45349;48.692;8.186;2022-10-28T11:24:54;99294.06;;;20.32;73.65
59531;BME280;45349;48.692;8.186;2022-10-28T11:27:36;99306.56;;;20.45;73.27
59531;BME280;45349;48.692;8.186;2022-10-28T11:30:10;99303.28;;;20.43;73.17
59531;BME280;45349;48.692;8.186;2022-10-28T11:32:48;99297.94;;;20.29;70.53
59531;BME280;45349;48.692;8.186;2022-10-28T11:38:30;99302.25;;;19.95;74.66
59531;BME280;45349;48.692;8.186;2022-10-28T11:41:13;99296.47;;;19.85;74.82
59531;BME280;45349;48.692;8.186;2022-10-28T11:43:47;99310.44;;;19.72;73.41
59531;BME280;45349;48.692;8.186;2022-10-28T11:46:22;99329.38;;;19.40;74.80
59531;BME280;45349;48.692;8.186;2022-10-28T11:49:13;99339.38;;;19.23;76.07
59531;BME280;45349;48.692;8.186;2022-10-28T11:51:49;99344.13;;;19.28;76.90
59531;BME280;45349;48.692;8.186;2022-10-28T11:54:29;99345.78;;;19.29;78.94
59531;BME280;45349;48.692;8.186;2022-10-28T11:57:04;99350.44;;;19.05;79.46
59531;BME280;45349;48.692;8.186;2022-10-28T11:59:44;99328.56;;;18.81;77.52
59531;BME280;45349;48.692;8.186;2022-10-28T12:02:27;99320.59;;;18.74;78.64
59531;BME280;45349;48.692;8.186;2022-10-28T12:05:02;99316.81;;;18.84;75.58
59531;BME280;45349;48.692;8.186;2022-10-28T12:07:47;99305.59;;;18.82;77.04
59531;BME280;45349;48.692;8.186;2022-10-28T12:10:25;99309.88;;;18.83;78.92
59531;BME280;45349;48.692;8.186;2022-10-28T12:13:06;99299.91;;;19.00;79.27
59531;BME280;45349;48.692;8.186;2022-10-28T12:15:43;99296.00;;;19.17;78.34
59531;BME280;45349;48.692;8.186;2022-10-28T12:18:19;99309.97;;;19.33;76.11
59531;BME280;45349;48.692;8.186;2022-10-28T12:20:55;99300.44;;;19.39;75.96
59531;BME280;45349;48.692;8.186;2022-10-28T12:23:25;99307.09;;;19.56;76.45
59531;BME280;45349;48.692;8.186;2022-10-28T12:25:55;99289.38;;;19.57;73.59
59531;BME280;45349;48.692;8.186;2022-10-28T12:28:27;99273.56;;;19.70;74.27
59531;BME280;45349;48.692;8.186;2022-10-28T12:30:56;99260.19;;;19.85;74.58
59531;BME280;45349;48.692;8.186;2022-10-28T12:33:26;99251.91;;;19.95;75.81
59531;BME280;45349;48.692;8.186;2022-10-28T12:36:14;99246.66;;;20.02;76.05
59531;BME280;45349;48.692;8.186;2022-10-28T12:38:47;99249.34;;;20.15;75.33
59531;BME280;45349;48.692;8.186;2022-10-28T12:41:20;99258.31;;;20.14;74.66
59531;BME280;45349;48.692;8.186;2022-10-28T12:43:52;99261.63;;;20.30;75.25
59531;BME280;45349;48.692;8.186;2022-10-28T12:46:29;99265.97;;;20.38;75.59
59531;BME280;45349;48.692;8.186;2022-10-28T12:49:04;99258.25;;;20.56;75.80
59531;BME280;45349;48.692;8.186;2022-10-28T12:51:36;99258.66;;;20.53;74.42
59531;BME280;45349;48.692;8.186;2022-10-28T12:54:10;99251.13;;;20.63;74.57
59531;BME280;45349;48.692;8.186;2022-10-28T12:56:45;99253.63;;;20.78;77.04
59531;BME280;45349;48.692;8.186;2022-10-28T12:59:19;99269.75;;;21.04;72.16
59531;BME280;45349;48.692;8.186;2022-10-28T13:01:49;99280.38;;;21.04;72.29
59531;BME280;45349;48.692;8.186;2022-10-28T13:04:17;99279.75;;;21.22;69.11
59531;BME280;45349;48.692;8.186;2022-10-28T13:07:04;99286.31;;;21.19;67.52
59531;BME280;45349;48.692;8.186;2022-10-28T13:09:44;99290.38;;;21.22;67.38
59531;BME280;45349;48.692;8.186;2022-10-28T13:12:44;99289.78;;;21.06;67.87
59531;BME280;45349;48.692;8.186;2022-10-28T13:15:36;99282.00;;;20.91;70.05
59531;BME280;45349;48.692;8.186;2022-10-28T13:18:19;99282.22;;;21.10;70.49